createdAt,value
2022-11-28T00:01:44.013Z,98889.91
2022-11-28T00:04:13.399Z,98893.47
2022-11-28T00:06:46.043Z,98878.09
2022-11-28T00:09:15.347Z,98869.72
2022-11-28T00:11:45.498Z,98888.81
2022-11-28T00:14:17.028Z,98896.25
2022-11-28T00:16:46.080Z,98904.84
2022-11-28T00:19:14.990Z,98887.69
2022-11-28T00:21:43.678Z,98887.13
2022-11-28T00:24:12.347Z,98882.59
2022-11-28T00:26:42.336Z,98871.41
2022-11-28T00:29:11.191Z,98874.66
2022-11-28T00:31:43.831Z,98868.66
2022-11-28T00:34:13.447Z,98866.06
2022-11-28T00:36:43.353Z,98874.66
2022-11-28T00:39:11.993Z,98879.00
2022-11-28T00:41:40.648Z,98882.59
2022-11-28T00:44:09.512Z,98885.19
2022-11-28T00:46:38.157Z,98886.00
2022-11-28T00:49:08.924Z,98885.03
2022-11-28T00:51:38.219Z,98879.84
2022-11-28T00:54:07.984Z,98881.16
2022-11-28T00:56:38.995Z,98892.97
2022-11-28T00:59:08.098Z,98891.53
2022-11-28T01:01:38.728Z,98881.34
2022-11-28T01:04:10.799Z,98876.78
2022-11-28T01:06:42.354Z,98893.94
2022-11-28T01:09:13.213Z,98886.63
2022-11-28T01:11:43.596Z,98878.31
2022-11-28T01:14:13.308Z,98887.53
2022-11-28T01:16:42.078Z,98878.31
2022-11-28T01:19:12.308Z,98871.88
2022-11-28T01:21:41.457Z,98858.03
2022-11-28T01:24:10.405Z,98859.53
2022-11-28T01:26:40.301Z,98856.44
2022-11-28T01:29:11.710Z,98852.41
2022-11-28T01:31:40.572Z,98850.78
2022-11-28T01:34:09.291Z,98860.38
2022-11-28T01:36:39.259Z,98851.16
2022-11-28T01:39:08.006Z,98858.28
2022-11-28T01:41:36.646Z,98857.94
2022-11-28T01:44:08.929Z,98844.59
2022-11-28T01:46:37.747Z,98858.75
2022-11-28T01:49:13.095Z,98866.53
2022-11-28T01:51:45.670Z,98857.59
2022-11-28T01:54:15.932Z,98854.34
2022-11-28T01:56:47.554Z,98856.94
2022-11-28T01:59:16.813Z,98857.59
2022-11-28T02:01:45.872Z,98847.91
2022-11-28T02:04:15.288Z,98854.88
2022-11-28T02:06:45.387Z,98858.13
2022-11-28T02:09:16.403Z,98851.94
2022-11-28T02:12:12.861Z,98840.13
2022-11-28T02:14:55.782Z,98837.91
2022-11-28T02:17:32.665Z,98835.31
2022-11-28T02:20:43.110Z,98830.66
2022-11-28T02:23:17.674Z,98826.47
2022-11-28T02:26:13.510Z,98825.31
2022-11-28T02:29:11.366Z,98819.94
2022-11-28T02:32:05.124Z,98808.50
2022-11-28T02:34:45.639Z,98812.09
2022-11-28T02:37:22.067Z,98795.72
2022-11-28T02:39:57.851Z,98795.28
2022-11-28T02:42:30.079Z,98789.94
2022-11-28T02:45:01.317Z,98777.41
2022-11-28T02:47:33.914Z,98779.38
2022-11-28T02:50:07.314Z,98769.19
2022-11-28T02:52:37.729Z,98765.16
2022-11-28T02:55:07.899Z,98769.63
2022-11-28T02:57:38.455Z,98767.41
2022-11-28T03:00:26.338Z,98785.63
2022-11-28T03:03:12.941Z,98778.94
2022-11-28T03:05:45.033Z,98769.81
2022-11-28T03:08:24.456Z,98767.66
2022-11-28T03:10:56.027Z,98759.91
2022-11-28T03:13:28.525Z,98745.50
2022-11-28T03:16:02.911Z,98769.28
2022-11-28T03:18:35.646Z,98749.28
2022-11-28T03:21:10.809Z,98747.41
2022-11-28T03:23:44.388Z,98765.53
2022-11-28T03:26:17.434Z,98751.31
2022-11-28T03:28:50.143Z,98740.59
2022-11-28T03:31:22.020Z,98728.25
2022-11-28T03:33:54.716Z,98743.19
2022-11-28T03:36:26.036Z,98731.56
2022-11-28T03:39:00.591Z,98725.06
2022-11-28T03:41:34.483Z,98732.22
2022-11-28T03:44:04.738Z,98738.13
2022-11-28T03:46:36.579Z,98727.66
2022-11-28T03:49:09.393Z,98730.78
2022-11-28T03:51:40.222Z,98728.38
2022-11-28T03:54:12.132Z,98738.09
2022-11-28T03:56:44.657Z,98737.47
2022-11-28T03:59:17.138Z,98741.50
2022-11-28T04:01:52.510Z,98734.72
2022-11-28T04:04:29.459Z,98739.88
2022-11-28T04:07:00.964Z,98738.91
2022-11-28T04:09:39.284Z,98711.22
2022-11-28T04:12:14.774Z,98724.78
2022-11-28T04:14:47.214Z,98717.66
2022-11-28T04:17:19.149Z,98718.81
2022-11-28T04:19:51.647Z,98719.00
2022-11-28T04:22:22.712Z,98720.16
2022-11-28T04:24:54.286Z,98722.94
2022-11-28T04:27:28.149Z,98727.66
2022-11-28T04:30:00.078Z,98730.59
2022-11-28T04:32:29.779Z,98730.44
2022-11-28T04:35:02.962Z,98733.19
2022-11-28T04:37:31.827Z,98746.75
2022-11-28T04:40:01.646Z,98747.91
2022-11-28T04:42:33.587Z,98751.03
2022-11-28T04:45:04.997Z,98746.75
2022-11-28T04:47:33.657Z,98734.53
2022-11-28T04:50:03.691Z,98747.41
2022-11-28T04:52:36.323Z,98739.81
2022-11-28T04:55:09.536Z,98742.84
2022-11-28T04:57:40.335Z,98742.03
2022-11-28T05:00:11.678Z,98741.59
2022-11-28T05:02:42.854Z,98740.88
2022-11-28T05:05:16.487Z,98736.22
2022-11-28T05:07:45.200Z,98728.13
2022-11-28T05:10:15.552Z,98722.94
2022-11-28T05:12:44.206Z,98727.66
2022-11-28T05:15:12.982Z,98734.28
2022-11-28T05:17:42.582Z,98728.75
2022-11-28T05:20:13.546Z,98730.50
2022-11-28T05:22:42.179Z,98730.59
2022-11-28T05:25:10.921Z,98741.84
2022-11-28T05:27:39.613Z,98744.81
2022-11-28T05:30:09.484Z,98738.09
2022-11-28T05:32:38.067Z,98739.88
2022-11-28T05:35:07.347Z,98735.75
2022-11-28T05:37:37.567Z,98743.63
2022-11-28T05:40:07.562Z,98751.66
2022-11-28T05:42:36.817Z,98741.13
2022-11-28T05:45:06.017Z,98742.13
2022-11-28T05:47:34.754Z,98745.03
2022-11-28T05:50:03.389Z,98745.88
2022-11-28T05:52:32.144Z,98741.47
2022-11-28T05:55:02.556Z,98741.75
2022-11-28T05:57:33.258Z,98734.34
2022-11-28T06:00:01.897Z,98739.97
2022-11-28T06:02:30.601Z,98734.19
2022-11-28T06:05:04.322Z,98732.03
2022-11-28T06:07:45.114Z,98737.84
2022-11-28T06:10:15.090Z,98734.06
2022-11-28T06:12:43.655Z,98730.50
2022-11-28T06:15:12.512Z,98734.59
2022-11-28T06:17:41.117Z,98731.41
2022-11-28T06:20:10.004Z,98732.38
2022-11-28T06:22:38.587Z,98735.94
2022-11-28T06:25:07.365Z,98738.09
2022-11-28T06:27:38.751Z,98736.84
2022-11-28T06:30:08.744Z,98743.53
2022-11-28T06:32:37.362Z,98742.03
2022-11-28T06:35:06.647Z,98745.31
2022-11-28T06:37:35.272Z,98747.84
2022-11-28T06:40:04.264Z,98745.25
2022-11-28T06:42:32.897Z,98749.97
2022-11-28T06:45:02.911Z,98742.66
2022-11-28T06:47:31.528Z,98737.31
2022-11-28T06:50:00.105Z,98740.69
2022-11-28T06:52:28.739Z,98739.09
2022-11-28T06:54:57.306Z,98741.69
2022-11-28T06:57:25.902Z,98750.16
2022-11-28T06:59:54.492Z,98736.59
2022-11-28T07:02:25.239Z,98742.38
2022-11-28T07:04:53.919Z,98743.09
2022-11-28T07:07:22.631Z,98737.75
2022-11-28T07:09:52.004Z,98743.44
2022-11-28T07:12:20.777Z,98743.44
2022-11-28T07:14:49.419Z,98740.75
2022-11-28T07:17:18.132Z,98749.47
2022-11-28T07:19:53.429Z,98751.13
2022-11-28T07:22:23.754Z,98756.16
2022-11-28T07:24:52.445Z,98754.91
2022-11-28T07:27:21.085Z,98755.34
2022-11-28T07:29:49.677Z,98758.88
2022-11-28T07:32:18.252Z,98754.34
2022-11-28T07:34:50.214Z,98763.56
2022-11-28T07:37:19.052Z,98765.00
2022-11-28T07:39:47.706Z,98759.00
2022-11-28T07:42:16.318Z,98754.47
2022-11-28T07:44:44.960Z,98755.53
2022-11-28T07:47:13.663Z,98747.75
2022-11-28T07:49:42.479Z,98752.41
2022-11-28T07:52:12.543Z,98754.91
2022-11-28T07:54:41.126Z,98761.69
2022-11-28T07:57:12.706Z,98762.41
2022-11-28T07:59:41.917Z,98764.72
2022-11-28T08:02:11.456Z,98760.59
2022-11-28T08:04:45.912Z,98764.81
2022-11-28T08:07:19.588Z,98755.25
2022-11-28T08:09:48.249Z,98765.28
2022-11-28T08:12:16.872Z,98774.03
2022-11-28T08:14:45.887Z,98773.06
2022-11-28T08:17:14.758Z,98769.28
2022-11-28T08:19:43.435Z,98772.88
2022-11-28T08:22:12.100Z,98768.94
2022-11-28T08:24:42.519Z,98767.88
2022-11-28T08:27:11.370Z,98768.06
2022-11-28T08:29:40.043Z,98766.34
2022-11-28T08:32:08.704Z,98765.63
2022-11-28T08:34:37.372Z,98770.00
2022-11-28T08:37:06.007Z,98766.59
2022-11-28T08:39:34.592Z,98758.13
2022-11-28T08:42:04.690Z,98759.09
2022-11-28T08:44:33.749Z,98761.88
2022-11-28T08:47:02.439Z,98760.63
2022-11-28T08:49:31.027Z,98761.22
2022-11-28T08:51:59.666Z,98758.22
2022-11-28T08:54:28.418Z,98763.03
2022-11-28T08:56:57.048Z,98761.50
2022-11-28T08:59:27.083Z,98746.84
2022-11-28T09:01:56.601Z,98768.75
2022-11-28T09:04:25.339Z,98764.00
2022-11-28T09:06:54.108Z,98759.72
2022-11-28T09:09:22.954Z,98764.53
2022-11-28T09:11:51.630Z,98756.75
2022-11-28T09:14:20.221Z,98757.53
2022-11-28T09:16:50.248Z,98765.31
2022-11-28T09:19:19.048Z,98764.34
2022-11-28T09:21:47.688Z,98762.50
2022-11-28T09:24:16.270Z,98750.59
2022-11-28T09:26:44.897Z,98751.03
2022-11-28T09:29:13.503Z,98752.06
2022-11-28T09:31:47.134Z,98767.91
2022-11-28T09:34:17.515Z,98768.34
2022-11-28T09:36:46.124Z,98773.78
2022-11-28T09:39:14.785Z,98775.03
2022-11-28T09:41:59.677Z,98763.50
2022-11-28T09:44:34.685Z,98772.94
2022-11-28T09:47:06.564Z,98763.72
2022-11-28T09:49:41.101Z,98772.56
2022-11-28T09:52:22.652Z,98777.38
2022-11-28T09:54:53.726Z,98765.66
2022-11-28T09:57:27.258Z,98761.63
2022-11-28T09:59:55.996Z,98750.16
2022-11-28T10:02:29.083Z,98754.72
2022-11-28T10:07:44.772Z,98756.22
2022-11-28T10:10:20.169Z,98769.88
2022-11-28T10:12:54.256Z,98771.50
2022-11-28T10:15:33.381Z,98763.72
2022-11-28T10:18:12.874Z,98753.75
2022-11-28T10:20:44.895Z,98757.38
2022-11-28T10:23:16.879Z,98765.81
2022-11-28T10:25:49.461Z,98768.16
2022-11-28T10:28:22.863Z,98765.16
2022-11-28T10:30:55.963Z,98763.44
2022-11-28T10:33:27.572Z,98754.66
2022-11-28T10:35:59.708Z,98750.31
2022-11-28T10:38:30.379Z,98760.34
2022-11-28T10:41:02.891Z,98748.97
2022-11-28T10:43:38.160Z,98742.34
2022-11-28T10:46:23.120Z,98741.97
2022-11-28T10:48:56.865Z,98750.19
2022-11-28T10:51:33.959Z,98740.41
2022-11-28T10:54:18.561Z,98748.06
2022-11-28T10:56:58.056Z,98736.69
2022-11-28T10:59:36.028Z,98746.13
2022-11-28T11:02:20.894Z,98745.13
2022-11-28T11:04:49.839Z,98742.16
2022-11-28T11:07:29.559Z,98753.75
2022-11-28T11:10:02.004Z,98743.38
2022-11-28T11:12:32.809Z,98744.84
2022-11-28T11:15:16.067Z,98741.84
2022-11-28T11:17:44.755Z,98733.88
2022-11-28T11:20:28.027Z,98747.50
2022-11-28T11:22:59.377Z,98749.50
2022-11-28T11:25:29.297Z,98743.53
2022-11-28T11:28:00.899Z,98743.94
2022-11-28T11:30:31.467Z,98728.78
2022-11-28T11:33:01.807Z,98721.38
2022-11-28T11:35:32.867Z,98722.22
2022-11-28T11:38:18.644Z,98718.00
2022-11-28T11:40:47.576Z,98719.56
2022-11-28T11:43:28.077Z,98712.63
2022-11-28T11:46:08.485Z,98710.66
2022-11-28T11:48:40.443Z,98706.47
2022-11-28T11:51:22.352Z,98706.50
2022-11-28T11:54:05.336Z,98716.31
2022-11-28T11:56:38.341Z,98717.28
2022-11-28T11:59:12.444Z,98710.72
2022-11-28T12:01:41.636Z,98711.69
2022-11-28T12:04:37.560Z,98714.09
2022-11-28T12:07:07.599Z,98716.91
2022-11-28T12:09:42.577Z,98714.28
2022-11-28T12:12:17.011Z,98708.91
2022-11-28T12:14:46.130Z,98705.50
2022-11-28T12:20:32.014Z,98703.94
2022-11-28T12:23:11.845Z,98698.75
2022-11-28T12:25:47.785Z,98699.75
2022-11-28T12:28:25.017Z,98696.56
2022-11-28T12:31:00.148Z,98696.97
2022-11-28T12:33:39.109Z,98694.59
2022-11-28T12:36:14.528Z,98680.19
2022-11-28T12:38:59.778Z,98682.19
2022-11-28T12:41:45.214Z,98686.97
2022-11-28T12:44:20.816Z,98678.19
2022-11-28T12:46:57.499Z,98676.19
2022-11-28T12:49:31.848Z,98670.22
2022-11-28T12:52:09.314Z,98674.59
2022-11-28T12:54:47.896Z,98670.78
2022-11-28T12:57:21.672Z,98678.00
2022-11-28T12:59:56.606Z,98676.97
2022-11-28T13:02:29.030Z,98682.19
2022-11-28T13:05:07.314Z,98676.59
2022-11-28T13:07:44.814Z,98694.41
2022-11-28T13:10:17.809Z,98681.00
2022-11-28T13:12:54.157Z,98678.59
2022-11-28T13:15:38.437Z,98676.00
2022-11-28T13:18:16.630Z,98667.41
2022-11-28T13:20:48.326Z,98669.78
2022-11-28T13:23:20.221Z,98656.97
2022-11-28T13:25:51.799Z,98659.59
2022-11-28T13:28:28.249Z,98641.97
2022-11-28T13:31:00.759Z,98647.00
2022-11-28T13:33:38.868Z,98652.59
2022-11-28T13:36:09.290Z,98647.78
2022-11-28T13:39:08.127Z,98649.00
2022-11-28T13:42:10.032Z,98647.00
2022-11-28T13:44:36.580Z,98646.19
2022-11-28T13:47:16.084Z,98646.63
2022-11-28T13:49:44.831Z,98644.59
2022-11-28T13:52:34.086Z,98644.19
2022-11-28T13:55:02.756Z,98648.59
2022-11-28T13:57:36.427Z,98642.22
2022-11-28T14:00:17.806Z,98639.59
2022-11-28T14:02:48.727Z,98642.22
2022-11-28T14:05:28.913Z,98640.78
2022-11-28T14:07:58.354Z,98635.78
2022-11-28T14:10:40.907Z,98637.41
2022-11-28T14:13:24.842Z,98633.56
2022-11-28T14:16:04.819Z,98643.63
2022-11-28T14:18:56.797Z,98636.38
2022-11-28T14:21:34.831Z,98631.78
2022-11-28T14:24:06.987Z,98627.78
2022-11-28T14:26:37.794Z,98634.19
2022-11-28T14:29:08.511Z,98631.78
2022-11-28T14:31:39.687Z,98634.97
2022-11-28T14:34:32.159Z,98635.41
2022-11-28T14:37:52.786Z,98633.19
2022-11-28T14:41:06.371Z,98641.59
2022-11-28T14:43:37.306Z,98632.59
2022-11-28T14:46:36.267Z,98638.78
2022-11-28T14:49:16.866Z,98632.19
2022-11-28T14:52:37.730Z,98633.38
2022-11-28T14:55:16.764Z,98635.81
2022-11-28T14:57:55.755Z,98627.19
2022-11-28T15:00:26.079Z,98636.19
2022-11-28T15:03:06.839Z,98631.78
2022-11-28T15:05:45.142Z,98633.81
2022-11-28T15:08:47.552Z,98634.19
2022-11-28T15:11:36.524Z,98631.78
2022-11-28T15:14:18.706Z,98629.75
2022-11-28T15:16:50.873Z,98624.97
2022-11-28T15:19:24.211Z,98630.19
2022-11-28T15:21:55.128Z,98631.78
2022-11-28T15:24:29.742Z,98636.19
2022-11-28T15:26:59.576Z,98634.75
2022-11-28T15:29:29.485Z,98636.97
2022-11-28T15:31:59.087Z,98636.97
2022-11-28T15:34:30.158Z,98639.16
2022-11-28T15:37:01.562Z,98641.59
2022-11-28T15:39:34.810Z,98643.78
2022-11-28T15:42:05.177Z,98643.56
2022-11-28T15:44:34.127Z,98645.38
2022-11-28T15:47:02.830Z,98647.56
2022-11-28T15:49:33.469Z,98650.34
2022-11-28T15:52:05.327Z,98646.16
2022-11-28T15:54:36.928Z,98646.16
2022-11-28T15:57:06.756Z,98655.94
2022-11-28T15:59:35.407Z,98648.97
2022-11-28T16:02:11.981Z,98643.75
2022-11-28T16:04:41.017Z,98643.13
2022-11-28T16:07:15.238Z,98651.75
2022-11-28T16:09:54.168Z,98638.31
2022-11-28T16:12:22.919Z,98650.94
2022-11-28T16:14:53.327Z,98647.97
2022-11-28T16:17:27.105Z,98646.94
2022-11-28T16:19:56.933Z,98650.16
2022-11-28T16:22:32.549Z,98649.75
2022-11-28T16:25:13.270Z,98653.97
2022-11-28T16:27:45.410Z,98656.16
2022-11-28T16:30:29.794Z,98656.16
2022-11-28T16:32:58.727Z,98657.34
2022-11-28T16:35:28.977Z,98645.34
2022-11-28T16:38:15.255Z,98651.16
2022-11-28T16:40:44.360Z,98653.94
2022-11-28T16:43:22.622Z,98652.16
2022-11-28T16:45:59.021Z,98648.94
2022-11-28T16:48:30.070Z,98659.31
2022-11-28T16:51:29.500Z,98658.72
2022-11-28T16:54:00.915Z,98655.88
2022-11-28T16:56:44.349Z,98653.28
2022-11-28T16:59:14.748Z,98653.47
2022-11-28T17:01:44.540Z,98650.50
2022-11-28T17:04:20.798Z,98653.69
2022-11-28T17:06:49.918Z,98653.28
2022-11-28T17:09:20.290Z,98642.31
2022-11-28T17:11:53.679Z,98642.50
2022-11-28T17:14:22.416Z,98638.91
2022-11-28T17:16:51.189Z,98637.31
2022-11-28T17:19:19.883Z,98639.50
2022-11-28T17:21:51.023Z,98642.06
2022-11-28T17:24:22.630Z,98639.66
2022-11-28T17:26:52.206Z,98643.84
2022-11-28T17:29:21.632Z,98635.84
2022-11-28T17:31:50.490Z,98643.63
2022-11-28T17:34:21.205Z,98642.25
2022-11-28T17:36:50.304Z,98645.66
2022-11-28T17:39:21.131Z,98636.03
2022-11-28T17:41:50.227Z,98638.03
2022-11-28T17:44:20.758Z,98642.44
2022-11-28T17:46:49.819Z,98642.44
2022-11-28T17:49:19.071Z,98642.03
2022-11-28T17:51:47.856Z,98644.63
2022-11-28T17:54:17.967Z,98642.81
2022-11-28T17:56:49.342Z,98640.22
2022-11-28T17:59:19.818Z,98643.63
2022-11-28T18:01:48.945Z,98638.84
2022-11-28T18:04:17.591Z,98653.63
2022-11-28T18:06:46.966Z,98649.44
2022-11-28T18:09:16.027Z,98655.25
2022-11-28T18:11:46.293Z,98643.22
2022-11-28T18:14:19.639Z,98649.22
2022-11-28T18:16:48.687Z,98658.25
2022-11-28T18:19:17.388Z,98645.25
2022-11-28T18:21:46.070Z,98645.66
2022-11-28T18:24:14.885Z,98650.06
2022-11-28T18:26:43.755Z,98644.03
2022-11-28T18:29:12.843Z,98657.22
2022-11-28T18:31:43.584Z,98648.63
2022-11-28T18:34:12.235Z,98649.03
2022-11-28T18:36:41.203Z,98644.03
2022-11-28T18:39:12.921Z,98648.25
2022-11-28T18:41:41.994Z,98655.66
2022-11-28T18:44:11.914Z,98648.63
2022-11-28T18:46:41.872Z,98652.84
2022-11-28T18:49:12.098Z,98647.41
2022-11-28T18:51:40.749Z,98663.66
2022-11-28T18:54:10.329Z,98666.63
2022-11-28T18:56:39.171Z,98672.63
2022-11-28T18:59:07.890Z,98668.44
2022-11-28T19:01:36.822Z,98678.84
2022-11-28T19:04:09.220Z,98672.81
2022-11-28T19:06:38.994Z,98673.03
2022-11-28T19:09:10.553Z,98670.63
2022-11-28T19:11:39.613Z,98666.84
2022-11-28T19:14:08.780Z,98672.81
2022-11-28T19:16:38.583Z,98672.03
2022-11-28T19:19:08.686Z,98668.59
2022-11-28T19:21:38.444Z,98672.63
2022-11-28T19:24:08.998Z,98674.00
2022-11-28T19:26:38.049Z,98675.97
2022-11-28T19:29:07.621Z,98674.34
2022-11-28T19:31:37.774Z,98672.97
2022-11-28T19:34:09.310Z,98672.34
2022-11-28T19:36:40.813Z,98672.97
2022-11-28T19:39:10.595Z,98675.75
2022-11-28T19:41:39.264Z,98676.75
2022-11-28T19:44:07.912Z,98678.38
2022-11-28T19:46:36.567Z,98675.97
2022-11-28T19:49:05.483Z,98669.94
2022-11-28T19:51:35.992Z,98672.13
2022-11-28T19:54:05.027Z,98677.34
2022-11-28T19:56:33.748Z,98680.72
2022-11-28T19:59:02.446Z,98683.75
2022-11-28T20:01:31.140Z,98675.97
2022-11-28T20:03:59.861Z,98677.53
2022-11-28T20:06:29.821Z,98684.75
2022-11-28T20:09:02.214Z,98683.31
2022-11-28T20:11:32.509Z,98679.09
2022-11-28T20:14:03.066Z,98685.13
2022-11-28T20:16:33.073Z,98678.91
2022-11-28T20:19:02.547Z,98686.91
2022-11-28T20:21:31.828Z,98685.13
2022-11-28T20:24:04.581Z,98689.50
2022-11-28T20:26:37.705Z,98681.50
2022-11-28T20:29:07.183Z,98694.16
2022-11-28T20:31:37.351Z,98695.53
2022-11-28T20:34:06.277Z,98692.94
2022-11-28T20:36:35.252Z,98695.16
2022-11-28T20:39:05.878Z,98704.16
2022-11-28T20:41:34.532Z,98703.13
2022-11-28T20:44:03.202Z,98705.53
2022-11-28T20:46:33.598Z,98705.97
2022-11-28T20:49:04.501Z,98706.84
2022-11-28T20:51:34.518Z,98707.47
2022-11-28T20:54:05.711Z,98705.28
2022-11-28T20:56:57.850Z,98703.97
2022-11-28T20:59:24.932Z,98701.72
2022-11-28T21:01:53.658Z,98702.31
2022-11-28T21:04:22.388Z,98706.28
2022-11-28T21:06:51.197Z,98713.69
2022-11-28T21:09:21.287Z,98704.09
2022-11-28T21:11:57.488Z,98703.22
2022-11-28T21:14:27.832Z,98701.44
2022-11-28T21:16:56.703Z,98702.88
2022-11-28T21:19:25.504Z,98702.47
2022-11-28T21:21:54.316Z,98702.63
2022-11-28T21:24:24.415Z,98707.63
2022-11-28T21:26:54.628Z,98704.84
2022-11-28T21:29:25.063Z,98707.78
2022-11-28T21:31:53.960Z,98707.00
2022-11-28T21:34:22.904Z,98709.78
2022-11-28T21:36:51.631Z,98703.03
2022-11-28T21:39:21.998Z,98706.63
2022-11-28T21:41:52.234Z,98706.00
2022-11-28T21:44:20.980Z,98697.59
2022-11-28T21:46:49.670Z,98707.44
2022-11-28T21:49:18.712Z,98703.41
2022-11-28T21:51:47.479Z,98705.59
2022-11-28T21:54:16.191Z,98705.59
2022-11-28T21:56:45.277Z,98703.56
2022-11-28T21:59:15.373Z,98713.00
2022-11-28T22:01:44.341Z,98709.00
2022-11-28T22:04:13.065Z,98710.97
2022-11-28T22:06:41.750Z,98709.59
2022-11-28T22:11:56.696Z,98711.97
2022-11-28T22:14:26.857Z,98706.56
2022-11-28T22:16:55.473Z,98707.34
2022-11-28T22:19:24.161Z,98716.56
2022-11-28T22:21:54.431Z,98708.13
2022-11-28T22:24:24.845Z,98707.53
2022-11-28T22:26:53.637Z,98711.38
2022-11-28T22:29:22.320Z,98710.75
2022-11-28T22:31:52.421Z,98704.75
2022-11-28T22:34:21.233Z,98716.97
2022-11-28T22:36:49.823Z,98710.94
2022-11-28T22:39:18.468Z,98710.34
2022-11-28T22:41:47.125Z,98710.34
2022-11-28T22:44:15.798Z,98712.75
2022-11-28T22:46:44.539Z,98711.75
2022-11-28T22:49:14.534Z,98714.13
2022-11-28T22:51:43.212Z,98717.69
2022-11-28T22:54:13.406Z,98717.09
2022-11-28T22:56:42.092Z,98715.09
2022-11-28T22:59:14.424Z,98720.28
2022-11-28T23:01:43.611Z,98724.31
2022-11-28T23:04:13.828Z,98720.09
2022-11-28T23:06:42.725Z,98722.31
2022-11-28T23:09:13.838Z,98717.53
2022-11-28T23:11:42.730Z,98722.09
2022-11-28T23:14:13.140Z,98723.19
2022-11-28T23:16:43.515Z,98714.75
2022-11-28T23:19:15.171Z,98720.28
2022-11-28T23:21:45.471Z,98723.72
2022-11-28T23:24:15.876Z,98727.09
2022-11-28T23:26:44.769Z,98722.72
2022-11-28T23:29:13.571Z,98722.91
2022-11-28T23:31:42.896Z,98724.69
2022-11-28T23:34:12.154Z,98723.91
2022-11-28T23:36:43.450Z,98721.91
2022-11-28T23:39:15.753Z,98721.31
2022-11-28T23:41:44.543Z,98724.50
2022-11-28T23:44:14.320Z,98721.50
2022-11-28T23:46:43.360Z,98720.66
2022-11-28T23:49:12.546Z,98728.91
2022-11-28T23:51:42.687Z,98720.50
2022-11-28T23:54:11.906Z,98723.91
2022-11-28T23:56:41.380Z,98727.94
2022-11-28T23:59:11.509Z,98728.34
